sensor_id;sensor_type;location;lat;lon;timestamp;pressure;altitude;pressure_sealevel;temperature;humidity
57250;BME280;43102;52.014;-0.680;2022-11-18T00:00:00;98172;;;9.67;77.65
57250;BME280;43102;52.014;-0.680;2022-11-18T00:01:08;98172;;;9.67;77.65
57250;BME280;43102;52.014;-0.680;2022-11-18T00:03:14;98172;;;9.67;77.65
57250;BME280;43102;52.014;-0.680;2022-11-18T00:04:00;98172;;;9.67;77.65
57250;BME280;43102;52.014;-0.680;2022-11-18T00:05:00;98177;;;9.67;77.88
57250;BME280;43102;52.014;-0.680;2022-11-18T00:06:00;98177;;;9.67;77.88
57250;BME280;43102;52.014;-0.680;2022-11-18T00:07:00;98177;;;9.67;77.88
57250;BME280;43102;52.014;-0.680;2022-11-18T00:08:00;98177;;;9.67;77.88
57250;BME280;43102;52.014;-0.680;2022-11-18T00:09:00;98177;;;9.67;77.88
57250;BME280;43102;52.014;-0.680;2022-11-18T00:10:00;98184;;;9.61;78.17
57250;BME280;43102;52.014;-0.680;2022-11-18T00:11:08;98184;;;9.61;78.17
57250;BME280;43102;52.014;-0.680;2022-11-18T00:12:00;98184;;;9.61;78.17
57250;BME280;43102;52.014;-0.680;2022-11-18T00:13:00;98184;;;9.61;78.17
57250;BME280;43102;52.014;-0.680;2022-11-18T00:14:00;98184;;;9.61;78.17
57250;BME280;43102;52.014;-0.680;2022-11-18T00:15:00;98194;;;9.65;78.17
57250;BME280;43102;52.014;-0.680;2022-11-18T00:16:04;98194;;;9.65;78.17
57250;BME280;43102;52.014;-0.680;2022-11-18T00:17:01;98194;;;9.65;78.17
57250;BME280;43102;52.014;-0.680;2022-11-18T00:18:00;98194;;;9.65;78.17
57250;BME280;43102;52.014;-0.680;2022-11-18T00:19:00;98194;;;9.65;78.17
57250;BME280;43102;52.014;-0.680;2022-11-18T00:20:00;98196;;;9.67;77.81
57250;BME280;43102;52.014;-0.680;2022-11-18T00:21:00;98196;;;9.67;77.81
57250;BME280;43102;52.014;-0.680;2022-11-18T00:22:00;98196;;;9.67;77.81
57250;BME280;43102;52.014;-0.680;2022-11-18T00:23:00;98196;;;9.67;77.81
57250;BME280;43102;52.014;-0.680;2022-11-18T00:24:00;98196;;;9.67;77.81
57250;BME280;43102;52.014;-0.680;2022-11-18T00:25:00;98202;;;9.70;77.56
57250;BME280;43102;52.014;-0.680;2022-11-18T00:26:00;98202;;;9.70;77.56
57250;BME280;43102;52.014;-0.680;2022-11-18T00:27:00;98202;;;9.70;77.56
57250;BME280;43102;52.014;-0.680;2022-11-18T00:28:00;98202;;;9.70;77.56
57250;BME280;43102;52.014;-0.680;2022-11-18T00:29:00;98202;;;9.70;77.56
57250;BME280;43102;52.014;-0.680;2022-11-18T00:30:00;98211;;;9.68;77.09
57250;BME280;43102;52.014;-0.680;2022-11-18T00:31:04;98211;;;9.68;77.09
57250;BME280;43102;52.014;-0.680;2022-11-18T00:32:00;98211;;;9.68;77.09
57250;BME280;43102;52.014;-0.680;2022-11-18T00:33:00;98211;;;9.68;77.09
57250;BME280;43102;52.014;-0.680;2022-11-18T00:34:00;98211;;;9.68;77.09
57250;BME280;43102;52.014;-0.680;2022-11-18T00:35:00;98219;;;9.75;77.10
57250;BME280;43102;52.014;-0.680;2022-11-18T00:36:00;98219;;;9.75;77.10
57250;BME280;43102;52.014;-0.680;2022-11-18T00:37:00;98219;;;9.75;77.10
57250;BME280;43102;52.014;-0.680;2022-11-18T00:38:00;98219;;;9.75;77.10
57250;BME280;43102;52.014;-0.680;2022-11-18T00:39:00;98219;;;9.75;77.10
57250;BME280;43102;52.014;-0.680;2022-11-18T00:40:00;98226;;;9.73;77.23
57250;BME280;43102;52.014;-0.680;2022-11-18T00:41:03;98226;;;9.73;77.23
57250;BME280;43102;52.014;-0.680;2022-11-18T00:42:00;98226;;;9.73;77.23
57250;BME280;43102;52.014;-0.680;2022-11-18T00:43:00;98226;;;9.73;77.23
57250;BME280;43102;52.014;-0.680;2022-11-18T00:44:00;98226;;;9.73;77.23
57250;BME280;43102;52.014;-0.680;2022-11-18T00:45:00;98220;;;9.78;77.03
57250;BME280;43102;52.014;-0.680;2022-11-18T00:46:00;98220;;;9.78;77.03
57250;BME280;43102;52.014;-0.680;2022-11-18T00:47:00;98220;;;9.78;77.03
57250;BME280;43102;52.014;-0.680;2022-11-18T00:48:00;98220;;;9.78;77.03
57250;BME280;43102;52.014;-0.680;2022-11-18T00:49:00;98220;;;9.78;77.03
57250;BME280;43102;52.014;-0.680;2022-11-18T00:50:00;98230;;;9.81;76.92
57250;BME280;43102;52.014;-0.680;2022-11-18T00:52:00;98230;;;9.81;76.92
57250;BME280;43102;52.014;-0.680;2022-11-18T00:53:00;98230;;;9.81;76.92
57250;BME280;43102;52.014;-0.680;2022-11-18T00:54:00;98230;;;9.81;76.92
57250;BME280;43102;52.014;-0.680;2022-11-18T00:55:00;98226;;;9.78;76.94
57250;BME280;43102;52.014;-0.680;2022-11-18T00:56:00;98226;;;9.78;76.94
57250;BME280;43102;52.014;-0.680;2022-11-18T00:57:00;98226;;;9.78;76.94
57250;BME280;43102;52.014;-0.680;2022-11-18T00:58:00;98226;;;9.78;76.94
57250;BME280;43102;52.014;-0.680;2022-11-18T00:59:00;98226;;;9.78;76.94
57250;BME280;43102;52.014;-0.680;2022-11-18T01:00:00;98234;;;9.80;76.49
57250;BME280;43102;52.014;-0.680;2022-11-18T01:01:00;98234;;;9.80;76.49
57250;BME280;43102;52.014;-0.680;2022-11-18T01:02:00;98234;;;9.80;76.49
57250;BME280;43102;52.014;-0.680;2022-11-18T01:03:00;98234;;;9.80;76.49
57250;BME280;43102;52.014;-0.680;2022-11-18T01:04:00;98234;;;9.80;76.49
57250;BME280;43102;52.014;-0.680;2022-11-18T01:05:00;98245;;;9.81;76.18
57250;BME280;43102;52.014;-0.680;2022-11-18T01:06:00;98245;;;9.81;76.18
57250;BME280;43102;52.014;-0.680;2022-11-18T01:07:00;98245;;;9.81;76.18
57250;BME280;43102;52.014;-0.680;2022-11-18T01:08:00;98245;;;9.81;76.18
57250;BME280;43102;52.014;-0.680;2022-11-18T01:09:00;98245;;;9.81;76.18
57250;BME280;43102;52.014;-0.680;2022-11-18T01:10:00;98245;;;9.71;76.28
57250;BME280;43102;52.014;-0.680;2022-11-18T01:11:00;98245;;;9.71;76.28
57250;BME280;43102;52.014;-0.680;2022-11-18T01:12:00;98245;;;9.71;76.28
57250;BME280;43102;52.014;-0.680;2022-11-18T01:13:00;98245;;;9.71;76.28
57250;BME280;43102;52.014;-0.680;2022-11-18T01:14:00;98245;;;9.71;76.28
57250;BME280;43102;52.014;-0.680;2022-11-18T01:15:00;98257;;;9.75;75.99
57250;BME280;43102;52.014;-0.680;2022-11-18T01:16:00;98257;;;9.75;75.99
57250;BME280;43102;52.014;-0.680;2022-11-18T01:17:00;98257;;;9.75;75.99
57250;BME280;43102;52.014;-0.680;2022-11-18T01:18:00;98257;;;9.75;75.99
57250;BME280;43102;52.014;-0.680;2022-11-18T01:19:00;98257;;;9.75;75.99
57250;BME280;43102;52.014;-0.680;2022-11-18T01:20:00;98255;;;9.74;76.25
57250;BME280;43102;52.014;-0.680;2022-11-18T01:21:00;98255;;;9.74;76.25
57250;BME280;43102;52.014;-0.680;2022-11-18T01:22:00;98255;;;9.74;76.25
57250;BME280;43102;52.014;-0.680;2022-11-18T01:23:00;98255;;;9.74;76.25
57250;BME280;43102;52.014;-0.680;2022-11-18T01:24:00;98255;;;9.74;76.25
57250;BME280;43102;52.014;-0.680;2022-11-18T01:25:00;98268;;;9.78;75.62
57250;BME280;43102;52.014;-0.680;2022-11-18T01:26:02;98268;;;9.78;75.62
57250;BME280;43102;52.014;-0.680;2022-11-18T01:27:00;98268;;;9.78;75.62
57250;BME280;43102;52.014;-0.680;2022-11-18T01:28:00;98268;;;9.78;75.62
57250;BME280;43102;52.014;-0.680;2022-11-18T01:29:00;98268;;;9.78;75.62
57250;BME280;43102;52.014;-0.680;2022-11-18T01:30:00;98272;;;9.80;75.30
57250;BME280;43102;52.014;-0.680;2022-11-18T01:31:03;98272;;;9.80;75.30
57250;BME280;43102;52.014;-0.680;2022-11-18T01:32:00;98272;;;9.80;75.30
57250;BME280;43102;52.014;-0.680;2022-11-18T01:33:00;98272;;;9.80;75.30
57250;BME280;43102;52.014;-0.680;2022-11-18T01:34:00;98272;;;9.80;75.30
57250;BME280;43102;52.014;-0.680;2022-11-18T01:35:00;98282;;;9.90;74.81
57250;BME280;43102;52.014;-0.680;2022-11-18T01:36:00;98282;;;9.90;74.81
57250;BME280;43102;52.014;-0.680;2022-11-18T01:37:00;98282;;;9.90;74.81
57250;BME280;43102;52.014;-0.680;2022-11-18T01:38:00;98282;;;9.90;74.81
57250;BME280;43102;52.014;-0.680;2022-11-18T01:39:00;98282;;;9.90;74.81
57250;BME280;43102;52.014;-0.680;2022-11-18T01:40:00;98291;;;9.83;74.67
57250;BME280;43102;52.014;-0.680;2022-11-18T01:41:00;98291;;;9.83;74.67
57250;BME280;43102;52.014;-0.680;2022-11-18T01:42:00;98291;;;9.83;74.67
57250;BME280;43102;52.014;-0.680;2022-11-18T01:43:00;98291;;;9.83;74.67
57250;BME280;43102;52.014;-0.680;2022-11-18T01:44:03;98291;;;9.83;74.67
57250;BME280;43102;52.014;-0.680;2022-11-18T01:46:00;98299;;;9.90;74.39
57250;BME280;43102;52.014;-0.680;2022-11-18T01:47:00;98299;;;9.90;74.39
57250;BME280;43102;52.014;-0.680;2022-11-18T01:48:08;98299;;;9.90;74.39
57250;BME280;43102;52.014;-0.680;2022-11-18T01:49:04;98299;;;9.90;74.39
57250;BME280;43102;52.014;-0.680;2022-11-18T01:50:00;98300;;;9.89;74.41
57250;BME280;43102;52.014;-0.680;2022-11-18T01:51:01;98300;;;9.89;74.41
57250;BME280;43102;52.014;-0.680;2022-11-18T01:52:00;98300;;;9.89;74.41
57250;BME280;43102;52.014;-0.680;2022-11-18T01:53:01;98300;;;9.89;74.41
57250;BME280;43102;52.014;-0.680;2022-11-18T01:54:08;98300;;;9.89;74.41
57250;BME280;43102;52.014;-0.680;2022-11-18T01:55:03;98304;;;9.86;74.10
57250;BME280;43102;52.014;-0.680;2022-11-18T01:56:01;98304;;;9.86;74.10
57250;BME280;43102;52.014;-0.680;2022-11-18T01:57:01;98304;;;9.86;74.10
57250;BME280;43102;52.014;-0.680;2022-11-18T01:58:05;98304;;;9.86;74.10
57250;BME280;43102;52.014;-0.680;2022-11-18T01:59:02;98304;;;9.86;74.10
57250;BME280;43102;52.014;-0.680;2022-11-18T02:00:00;98317;;;9.87;74.62
57250;BME280;43102;52.014;-0.680;2022-11-18T02:01:00;98317;;;9.87;74.62
57250;BME280;43102;52.014;-0.680;2022-11-18T02:02:00;98317;;;9.87;74.62
57250;BME280;43102;52.014;-0.680;2022-11-18T02:03:00;98317;;;9.87;74.62
57250;BME280;43102;52.014;-0.680;2022-11-18T02:04:00;98317;;;9.87;74.62
57250;BME280;43102;52.014;-0.680;2022-11-18T02:05:00;98319;;;9.88;74.34
57250;BME280;43102;52.014;-0.680;2022-11-18T02:06:00;98319;;;9.88;74.34
57250;BME280;43102;52.014;-0.680;2022-11-18T02:07:00;98319;;;9.88;74.34
57250;BME280;43102;52.014;-0.680;2022-11-18T02:08:00;98319;;;9.88;74.34
57250;BME280;43102;52.014;-0.680;2022-11-18T02:09:00;98319;;;9.88;74.34
57250;BME280;43102;52.014;-0.680;2022-11-18T02:10:00;98322;;;9.89;74.37
57250;BME280;43102;52.014;-0.680;2022-11-18T02:11:00;98322;;;9.89;74.37
57250;BME280;43102;52.014;-0.680;2022-11-18T02:12:00;98322;;;9.89;74.37
57250;BME280;43102;52.014;-0.680;2022-11-18T02:13:00;98322;;;9.89;74.37
57250;BME280;43102;52.014;-0.680;2022-11-18T02:14:01;98322;;;9.89;74.37
57250;BME280;43102;52.014;-0.680;2022-11-18T02:15:00;98328;;;9.85;74.67
57250;BME280;43102;52.014;-0.680;2022-11-18T02:16:10;98328;;;9.85;74.67
57250;BME280;43102;52.014;-0.680;2022-11-18T02:18:06;98328;;;9.85;74.67
57250;BME280;43102;52.014;-0.680;2022-11-18T02:19:00;98328;;;9.85;74.67
57250;BME280;43102;52.014;-0.680;2022-11-18T02:21:06;98331;;;9.90;74.35
57250;BME280;43102;52.014;-0.680;2022-11-18T02:22:11;98331;;;9.90;74.35
57250;BME280;43102;52.014;-0.680;2022-11-18T02:30:02;98338;;;9.87;74.14
57250;BME280;43102;52.014;-0.680;2022-11-18T02:31:02;98338;;;9.87;74.14
57250;BME280;43102;52.014;-0.680;2022-11-18T02:32:02;98338;;;9.87;74.14
57250;BME280;43102;52.014;-0.680;2022-11-18T02:33:04;98338;;;9.87;74.14
57250;BME280;43102;52.014;-0.680;2022-11-18T02:34:02;98338;;;9.87;74.14
57250;BME280;43102;52.014;-0.680;2022-11-18T02:36:04;98351;;;9.86;74.35
57250;BME280;43102;52.014;-0.680;2022-11-18T02:37:04;98351;;;9.86;74.35
57250;BME280;43102;52.014;-0.680;2022-11-18T02:38:01;98351;;;9.86;74.35
57250;BME280;43102;52.014;-0.680;2022-11-18T02:39:02;98351;;;9.86;74.35
57250;BME280;43102;52.014;-0.680;2022-11-18T02:40:01;98362;;;9.75;74.69
57250;BME280;43102;52.014;-0.680;2022-11-18T02:41:01;98362;;;9.75;74.69
57250;BME280;43102;52.014;-0.680;2022-11-18T02:42:00;98362;;;9.75;74.69
57250;BME280;43102;52.014;-0.680;2022-11-18T02:43:03;98362;;;9.75;74.69
57250;BME280;43102;52.014;-0.680;2022-11-18T02:44:02;98362;;;9.75;74.69
57250;BME280;43102;52.014;-0.680;2022-11-18T02:45:01;98362;;;9.77;74.75
57250;BME280;43102;52.014;-0.680;2022-11-18T02:46:01;98362;;;9.77;74.75
57250;BME280;43102;52.014;-0.680;2022-11-18T02:47:00;98362;;;9.77;74.75
57250;BME280;43102;52.014;-0.680;2022-11-18T02:48:01;98362;;;9.77;74.75
57250;BME280;43102;52.014;-0.680;2022-11-18T02:49:02;98362;;;9.77;74.75
57250;BME280;43102;52.014;-0.680;2022-11-18T02:50:01;98371;;;9.73;75.34
57250;BME280;43102;52.014;-0.680;2022-11-18T02:51:00;98371;;;9.73;75.34
57250;BME280;43102;52.014;-0.680;2022-11-18T02:52:00;98371;;;9.73;75.34
57250;BME280;43102;52.014;-0.680;2022-11-18T02:53:00;98371;;;9.73;75.34
57250;BME280;43102;52.014;-0.680;2022-11-18T02:54:01;98371;;;9.73;75.34
57250;BME280;43102;52.014;-0.680;2022-11-18T02:55:00;98382;;;9.67;75.27
57250;BME280;43102;52.014;-0.680;2022-11-18T02:56:00;98382;;;9.67;75.27
57250;BME280;43102;52.014;-0.680;2022-11-18T02:57:00;98382;;;9.67;75.27
57250;BME280;43102;52.014;-0.680;2022-11-18T02:58:00;98382;;;9.67;75.27
57250;BME280;43102;52.014;-0.680;2022-11-18T02:59:00;98382;;;9.67;75.27
57250;BME280;43102;52.014;-0.680;2022-11-18T03:00:00;98382;;;9.62;75.36
57250;BME280;43102;52.014;-0.680;2022-11-18T03:01:00;98382;;;9.62;75.36
57250;BME280;43102;52.014;-0.680;2022-11-18T03:02:00;98382;;;9.62;75.36
57250;BME280;43102;52.014;-0.680;2022-11-18T03:03:00;98382;;;9.62;75.36
57250;BME280;43102;52.014;-0.680;2022-11-18T03:04:00;98382;;;9.62;75.36
57250;BME280;43102;52.014;-0.680;2022-11-18T03:05:00;98388;;;9.60;75.38
57250;BME280;43102;52.014;-0.680;2022-11-18T03:06:04;98388;;;9.60;75.38
57250;BME280;43102;52.014;-0.680;2022-11-18T03:07:04;98388;;;9.60;75.38
57250;BME280;43102;52.014;-0.680;2022-11-18T03:08:07;98388;;;9.60;75.38
57250;BME280;43102;52.014;-0.680;2022-11-18T03:09:02;98388;;;9.60;75.38
57250;BME280;43102;52.014;-0.680;2022-11-18T03:10:00;98395;;;9.56;75.82
57250;BME280;43102;52.014;-0.680;2022-11-18T03:11:16;98395;;;9.56;75.82
57250;BME280;43102;52.014;-0.680;2022-11-18T03:14:18;98395;;;9.56;75.82
57250;BME280;43102;52.014;-0.680;2022-11-18T03:15:18;98406;;;9.62;75.69
57250;BME280;43102;52.014;-0.680;2022-11-18T03:16:01;98406;;;9.62;75.69
57250;BME280;43102;52.014;-0.680;2022-11-18T03:17:01;98406;;;9.62;75.69
57250;BME280;43102;52.014;-0.680;2022-11-18T03:18:06;98406;;;9.62;75.69
57250;BME280;43102;52.014;-0.680;2022-11-18T03:21:05;98411;;;9.59;75.87
57250;BME280;43102;52.014;-0.680;2022-11-18T03:23:31;98411;;;9.59;75.87
57250;BME280;43102;52.014;-0.680;2022-11-18T03:24:05;98411;;;9.59;75.87
57250;BME280;43102;52.014;-0.680;2022-11-18T03:26:01;98420;;;9.56;76.18
57250;BME280;43102;52.014;-0.680;2022-11-18T03:27:18;98420;;;9.56;76.18
57250;BME280;43102;52.014;-0.680;2022-11-18T03:30:02;98419;;;9.57;76.03
57250;BME280;43102;52.014;-0.680;2022-11-18T03:31:09;98419;;;9.57;76.03
57250;BME280;43102;52.014;-0.680;2022-11-18T03:32:17;98419;;;9.57;76.03
57250;BME280;43102;52.014;-0.680;2022-11-18T03:33:02;98419;;;9.57;76.03
57250;BME280;43102;52.014;-0.680;2022-11-18T03:34:02;98419;;;9.57;76.03
57250;BME280;43102;52.014;-0.680;2022-11-18T03:35:01;98425;;;9.57;76.12
57250;BME280;43102;52.014;-0.680;2022-11-18T03:36:00;98425;;;9.57;76.12
57250;BME280;43102;52.014;-0.680;2022-11-18T03:37:00;98425;;;9.57;76.12
57250;BME280;43102;52.014;-0.680;2022-11-18T03:38:01;98425;;;9.57;76.12
57250;BME280;43102;52.014;-0.680;2022-11-18T03:39:00;98425;;;9.57;76.12
57250;BME280;43102;52.014;-0.680;2022-11-18T03:40:03;98432;;;9.53;76.16
57250;BME280;43102;52.014;-0.680;2022-11-18T03:41:00;98432;;;9.53;76.16
57250;BME280;43102;52.014;-0.680;2022-11-18T03:42:05;98432;;;9.53;76.16
57250;BME280;43102;52.014;-0.680;2022-11-18T03:43:02;98432;;;9.53;76.16
57250;BME280;43102;52.014;-0.680;2022-11-18T03:44:01;98432;;;9.53;76.16
57250;BME280;43102;52.014;-0.680;2022-11-18T03:46:08;98442;;;9.53;76.47
57250;BME280;43102;52.014;-0.680;2022-11-18T03:47:01;98442;;;9.53;76.47
57250;BME280;43102;52.014;-0.680;2022-11-18T03:48:02;98442;;;9.53;76.47
57250;BME280;43102;52.014;-0.680;2022-11-18T03:49:00;98442;;;9.53;76.47
57250;BME280;43102;52.014;-0.680;2022-11-18T03:50:03;98452;;;9.50;76.45
57250;BME280;43102;52.014;-0.680;2022-11-18T03:51:01;98452;;;9.50;76.45
57250;BME280;43102;52.014;-0.680;2022-11-18T03:52:01;98452;;;9.50;76.45
57250;BME280;43102;52.014;-0.680;2022-11-18T03:53:00;98452;;;9.50;76.45
57250;BME280;43102;52.014;-0.680;2022-11-18T03:54:02;98452;;;9.50;76.45
57250;BME280;43102;52.014;-0.680;2022-11-18T03:55:01;98456;;;9.46;76.71
57250;BME280;43102;52.014;-0.680;2022-11-18T03:56:01;98456;;;9.46;76.71
57250;BME280;43102;52.014;-0.680;2022-11-18T03:57:02;98456;;;9.46;76.71
57250;BME280;43102;52.014;-0.680;2022-11-18T04:00:03;98461;;;9.39;76.86
57250;BME280;43102;52.014;-0.680;2022-11-18T04:01:02;98461;;;9.39;76.86
57250;BME280;43102;52.014;-0.680;2022-11-18T04:02:02;98461;;;9.39;76.86
57250;BME280;43102;52.014;-0.680;2022-11-18T04:03:00;98461;;;9.39;76.86
57250;BME280;43102;52.014;-0.680;2022-11-18T04:04:00;98461;;;9.39;76.86
57250;BME280;43102;52.014;-0.680;2022-11-18T04:05:00;98474;;;9.34;76.87
57250;BME280;43102;52.014;-0.680;2022-11-18T04:06:02;98474;;;9.34;76.87
57250;BME280;43102;52.014;-0.680;2022-11-18T04:08:00;98474;;;9.34;76.87
57250;BME280;43102;52.014;-0.680;2022-11-18T04:09:01;98474;;;9.34;76.87
57250;BME280;43102;52.014;-0.680;2022-11-18T04:11:42;98489;;;9.32;76.83
57250;BME280;43102;52.014;-0.680;2022-11-18T04:12:02;98489;;;9.32;76.83
57250;BME280;43102;52.014;-0.680;2022-11-18T04:14:00;98489;;;9.32;76.83
57250;BME280;43102;52.014;-0.680;2022-11-18T04:15:00;98498;;;9.34;76.99
57250;BME280;43102;52.014;-0.680;2022-11-18T04:16:00;98498;;;9.34;76.99
57250;BME280;43102;52.014;-0.680;2022-11-18T04:17:02;98498;;;9.34;76.99
57250;BME280;43102;52.014;-0.680;2022-11-18T04:18:00;98498;;;9.34;76.99
57250;BME280;43102;52.014;-0.680;2022-11-18T04:19:00;98498;;;9.34;76.99
57250;BME280;43102;52.014;-0.680;2022-11-18T04:20:00;98502;;;9.33;76.99
57250;BME280;43102;52.014;-0.680;2022-11-18T04:21:00;98502;;;9.33;76.99
57250;BME280;43102;52.014;-0.680;2022-11-18T04:22:00;98502;;;9.33;76.99
57250;BME280;43102;52.014;-0.680;2022-11-18T04:23:00;98502;;;9.33;76.99
57250;BME280;43102;52.014;-0.680;2022-11-18T04:24:00;98502;;;9.33;76.99
57250;BME280;43102;52.014;-0.680;2022-11-18T04:25:00;98510;;;9.27;77.24
57250;BME280;43102;52.014;-0.680;2022-11-18T04:26:00;98510;;;9.27;77.24
57250;BME280;43102;52.014;-0.680;2022-11-18T04:27:00;98510;;;9.27;77.24
57250;BME280;43102;52.014;-0.680;2022-11-18T04:28:00;98510;;;9.27;77.24
57250;BME280;43102;52.014;-0.680;2022-11-18T04:29:00;98510;;;9.27;77.24
57250;BME280;43102;52.014;-0.680;2022-11-18T04:30:00;98519;;;9.27;77.18
57250;BME280;43102;52.014;-0.680;2022-11-18T04:31:00;98519;;;9.27;77.18
57250;BME280;43102;52.014;-0.680;2022-11-18T04:32:00;98519;;;9.27;77.18
57250;BME280;43102;52.014;-0.680;2022-11-18T04:33:00;98519;;;9.27;77.18
57250;BME280;43102;52.014;-0.680;2022-11-18T04:34:00;98519;;;9.27;77.18
57250;BME280;43102;52.014;-0.680;2022-11-18T04:35:00;98525;;;9.24;77.25
57250;BME280;43102;52.014;-0.680;2022-11-18T04:36:00;98525;;;9.24;77.25
57250;BME280;43102;52.014;-0.680;2022-11-18T04:37:00;98525;;;9.24;77.25
57250;BME280;43102;52.014;-0.680;2022-11-18T04:38:00;98525;;;9.24;77.25
57250;BME280;43102;52.014;-0.680;2022-11-18T04:39:00;98525;;;9.24;77.25
57250;BME280;43102;52.014;-0.680;2022-11-18T04:40:00;98530;;;9.22;77.26
57250;BME280;43102;52.014;-0.680;2022-11-18T04:41:00;98530;;;9.22;77.26
57250;BME280;43102;52.014;-0.680;2022-11-18T04:42:00;98530;;;9.22;77.26
57250;BME280;43102;52.014;-0.680;2022-11-18T04:43:00;98530;;;9.22;77.26
57250;BME280;43102;52.014;-0.680;2022-11-18T04:44:00;98530;;;9.22;77.26
57250;BME280;43102;52.014;-0.680;2022-11-18T04:45:00;98531;;;9.19;77.27
57250;BME280;43102;52.014;-0.680;2022-11-18T04:46:00;98531;;;9.19;77.27
57250;BME280;43102;52.014;-0.680;2022-11-18T04:47:01;98531;;;9.19;77.27
57250;BME280;43102;52.014;-0.680;2022-11-18T04:48:00;98531;;;9.19;77.27
57250;BME280;43102;52.014;-0.680;2022-11-18T04:49:00;98531;;;9.19;77.27
57250;BME280;43102;52.014;-0.680;2022-11-18T04:50:00;98544;;;9.18;77.35
57250;BME280;43102;52.014;-0.680;2022-11-18T04:51:03;98544;;;9.18;77.35
57250;BME280;43102;52.014;-0.680;2022-11-18T04:52:00;98544;;;9.18;77.35
57250;BME280;43102;52.014;-0.680;2022-11-18T04:53:00;98544;;;9.18;77.35
57250;BME280;43102;52.014;-0.680;2022-11-18T04:54:00;98544;;;9.18;77.35
57250;BME280;43102;52.014;-0.680;2022-11-18T04:55:00;98552;;;9.17;77.40
57250;BME280;43102;52.014;-0.680;2022-11-18T04:56:04;98552;;;9.17;77.40
57250;BME280;43102;52.014;-0.680;2022-11-18T04:57:00;98552;;;9.17;77.40
57250;BME280;43102;52.014;-0.680;2022-11-18T04:58:00;98552;;;9.17;77.40
57250;BME280;43102;52.014;-0.680;2022-11-18T04:59:00;98552;;;9.17;77.40
57250;BME280;43102;52.014;-0.680;2022-11-18T05:00:00;98556;;;9.15;77.36
57250;BME280;43102;52.014;-0.680;2022-11-18T05:01:00;98556;;;9.15;77.36
57250;BME280;43102;52.014;-0.680;2022-11-18T05:02:00;98556;;;9.15;77.36
57250;BME280;43102;52.014;-0.680;2022-11-18T05:03:00;98556;;;9.15;77.36
57250;BME280;43102;52.014;-0.680;2022-11-18T05:04:00;98556;;;9.15;77.36
57250;BME280;43102;52.014;-0.680;2022-11-18T05:05:00;98566;;;9.15;77.44
57250;BME280;43102;52.014;-0.680;2022-11-18T05:06:00;98566;;;9.15;77.44
57250;BME280;43102;52.014;-0.680;2022-11-18T05:07:00;98566;;;9.15;77.44
57250;BME280;43102;52.014;-0.680;2022-11-18T05:08:00;98566;;;9.15;77.44
57250;BME280;43102;52.014;-0.680;2022-11-18T05:09:00;98566;;;9.15;77.44
57250;BME280;43102;52.014;-0.680;2022-11-18T05:10:00;98576;;;9.13;77.40
57250;BME280;43102;52.014;-0.680;2022-11-18T05:11:04;98576;;;9.13;77.40
57250;BME280;43102;52.014;-0.680;2022-11-18T05:12:00;98576;;;9.13;77.40
57250;BME280;43102;52.014;-0.680;2022-11-18T05:13:00;98576;;;9.13;77.40
57250;BME280;43102;52.014;-0.680;2022-11-18T05:14:00;98576;;;9.13;77.40
57250;BME280;43102;52.014;-0.680;2022-11-18T05:15:00;98582;;;9.13;77.44
57250;BME280;43102;52.014;-0.680;2022-11-18T05:16:00;98582;;;9.13;77.44
57250;BME280;43102;52.014;-0.680;2022-11-18T05:17:00;98582;;;9.13;77.44
57250;BME280;43102;52.014;-0.680;2022-11-18T05:18:00;98582;;;9.13;77.44
57250;BME280;43102;52.014;-0.680;2022-11-18T05:19:01;98582;;;9.13;77.44
57250;BME280;43102;52.014;-0.680;2022-11-18T05:20:00;98585;;;9.13;77.44
57250;BME280;43102;52.014;-0.680;2022-11-18T05:21:03;98585;;;9.13;77.44
57250;BME280;43102;52.014;-0.680;2022-11-18T05:22:00;98585;;;9.13;77.44
57250;BME280;43102;52.014;-0.680;2022-11-18T05:23:00;98585;;;9.13;77.44
57250;BME280;43102;52.014;-0.680;2022-11-18T05:24:00;98585;;;9.13;77.44
57250;BME280;43102;52.014;-0.680;2022-11-18T05:25:00;98593;;;9.13;77.50
57250;BME280;43102;52.014;-0.680;2022-11-18T05:26:03;98593;;;9.13;77.50
57250;BME280;43102;52.014;-0.680;2022-11-18T05:27:00;98593;;;9.13;77.50
57250;BME280;43102;52.014;-0.680;2022-11-18T05:28:00;98593;;;9.13;77.50
57250;BME280;43102;52.014;-0.680;2022-11-18T05:29:00;98593;;;9.13;77.50
57250;BME280;43102;52.014;-0.680;2022-11-18T05:30:00;98599;;;9.10;77.51
57250;BME280;43102;52.014;-0.680;2022-11-18T05:31:04;98599;;;9.10;77.51
57250;BME280;43102;52.014;-0.680;2022-11-18T05:32:00;98599;;;9.10;77.51
57250;BME280;43102;52.014;-0.680;2022-11-18T05:33:00;98599;;;9.10;77.51
57250;BME280;43102;52.014;-0.680;2022-11-18T05:34:00;98599;;;9.10;77.51
57250;BME280;43102;52.014;-0.680;2022-11-18T05:35:00;98600;;;9.09;77.64
57250;BME280;43102;52.014;-0.680;2022-11-18T05:36:01;98600;;;9.09;77.64
57250;BME280;43102;52.014;-0.680;2022-11-18T05:37:00;98600;;;9.09;77.64
57250;BME280;43102;52.014;-0.680;2022-11-18T05:38:00;98600;;;9.09;77.64
57250;BME280;43102;52.014;-0.680;2022-11-18T05:39:00;98600;;;9.09;77.64
57250;BME280;43102;52.014;-0.680;2022-11-18T05:40:00;98605;;;9.05;77.60
57250;BME280;43102;52.014;-0.680;2022-11-18T05:41:00;98605;;;9.05;77.60
57250;BME280;43102;52.014;-0.680;2022-11-18T05:42:00;98605;;;9.05;77.60
57250;BME280;43102;52.014;-0.680;2022-11-18T05:43:00;98605;;;9.05;77.60
57250;BME280;43102;52.014;-0.680;2022-11-18T05:44:00;98605;;;9.05;77.60
57250;BME280;43102;52.014;-0.680;2022-11-18T05:45:00;98616;;;9.05;77.66
57250;BME280;43102;52.014;-0.680;2022-11-18T05:46:00;98616;;;9.05;77.66
57250;BME280;43102;52.014;-0.680;2022-11-18T05:47:00;98616;;;9.05;77.66
57250;BME280;43102;52.014;-0.680;2022-11-18T05:48:00;98616;;;9.05;77.66
57250;BME280;43102;52.014;-0.680;2022-11-18T05:49:00;98616;;;9.05;77.66
57250;BME280;43102;52.014;-0.680;2022-11-18T05:50:00;98623;;;9.05;77.68
57250;BME280;43102;52.014;-0.680;2022-11-18T05:51:00;98623;;;9.05;77.68
57250;BME280;43102;52.014;-0.680;2022-11-18T05:52:00;98623;;;9.05;77.68
57250;BME280;43102;52.014;-0.680;2022-11-18T05:53:00;98623;;;9.05;77.68
57250;BME280;43102;52.014;-0.680;2022-11-18T05:54:02;98623;;;9.05;77.68
57250;BME280;43102;52.014;-0.680;2022-11-18T05:55:00;98628;;;9.06;77.77
57250;BME280;43102;52.014;-0.680;2022-11-18T05:56:02;98628;;;9.06;77.77
57250;BME280;43102;52.014;-0.680;2022-11-18T05:57:00;98628;;;9.06;77.77